sensor_id;sensor_type;location;lat;lon;timestamp;P1;durP1;ratioP1;P2;durP2;ratioP2
42140;SDS011;27809;51.864;5.646;2023-05-10T00:01:53;43.90;;;19.90;;
42140;SDS011;27809;51.864;5.646;2023-05-10T00:04:19;31.23;;;16.00;;
42140;SDS011;27809;51.864;5.646;2023-05-10T00:06:45;33.55;;;16.05;;
42140;SDS011;27809;51.864;5.646;2023-05-10T00:09:10;33.15;;;14.98;;
42140;SDS011;27809;51.864;5.646;2023-05-10T00:11:36;32.63;;;15.45;;
42140;SDS011;27809;51.864;5.646;2023-05-10T00:14:01;31.33;;;16.00;;
42140;SDS011;27809;51.864;5.646;2023-05-10T00:16:27;29.60;;;16.48;;
42140;SDS011;27809;51.864;5.646;2023-05-10T00:18:52;44.53;;;16.98;;
42140;SDS011;27809;51.864;5.646;2023-05-10T00:21:18;28.08;;;14.23;;
42140;SDS011;27809;51.864;5.646;2023-05-10T00:23:43;26.35;;;13.35;;
42140;SDS011;27809;51.864;5.646;2023-05-10T00:26:09;25.02;;;12.15;;
42140;SDS011;27809;51.864;5.646;2023-05-10T00:28:34;23.60;;;12.40;;
42140;SDS011;27809;51.864;5.646;2023-05-10T00:31:00;29.00;;;13.05;;
42140;SDS011;27809;51.864;5.646;2023-05-10T00:33:25;23.83;;;11.70;;
42140;SDS011;27809;51.864;5.646;2023-05-10T00:35:51;28.08;;;11.85;;
42140;SDS011;27809;51.864;5.646;2023-05-10T00:38:17;22.30;;;11.70;;
42140;SDS011;27809;51.864;5.646;2023-05-10T00:40:43;21.85;;;10.77;;
42140;SDS011;27809;51.864;5.646;2023-05-10T00:43:08;22.27;;;10.55;;
42140;SDS011;27809;51.864;5.646;2023-05-10T00:45:34;24.95;;;11.75;;
42140;SDS011;27809;51.864;5.646;2023-05-10T00:48:01;23.88;;;11.52;;
42140;SDS011;27809;51.864;5.646;2023-05-10T00:50:27;25.40;;;11.32;;
42140;SDS011;27809;51.864;5.646;2023-05-10T00:52:53;22.80;;;12.77;;
42140;SDS011;27809;51.864;5.646;2023-05-10T00:55:20;25.65;;;12.05;;
42140;SDS011;27809;51.864;5.646;2023-05-10T00:57:45;23.65;;;11.68;;
42140;SDS011;27809;51.864;5.646;2023-05-10T01:00:12;24.15;;;11.85;;
42140;SDS011;27809;51.864;5.646;2023-05-10T01:02:42;28.85;;;13.02;;
42140;SDS011;27809;51.864;5.646;2023-05-10T01:05:09;34.20;;;15.70;;
42140;SDS011;27809;51.864;5.646;2023-05-10T01:07:34;31.80;;;15.07;;
42140;SDS011;27809;51.864;5.646;2023-05-10T01:10:00;39.60;;;16.15;;
42140;SDS011;27809;51.864;5.646;2023-05-10T01:12:25;43.15;;;17.30;;
42140;SDS011;27809;51.864;5.646;2023-05-10T01:14:51;42.60;;;18.73;;
42140;SDS011;27809;51.864;5.646;2023-05-10T01:17:17;41.58;;;19.13;;
42140;SDS011;27809;51.864;5.646;2023-05-10T01:19:44;44.70;;;18.60;;
42140;SDS011;27809;51.864;5.646;2023-05-10T01:28:17;43.03;;;18.90;;
42140;SDS011;27809;51.864;5.646;2023-05-10T01:36:13;49.10;;;22.30;;
42140;SDS011;27809;51.864;5.646;2023-05-10T01:38:52;45.45;;;20.70;;
42140;SDS011;27809;51.864;5.646;2023-05-10T01:47:10;46.55;;;21.20;;
42140;SDS011;27809;51.864;5.646;2023-05-10T01:49:43;47.03;;;22.85;;
42140;SDS011;27809;51.864;5.646;2023-05-10T01:52:13;59.70;;;22.27;;
42140;SDS011;27809;51.864;5.646;2023-05-10T01:55:06;53.40;;;23.30;;
42140;SDS011;27809;51.864;5.646;2023-05-10T01:57:32;50.50;;;24.65;;
42140;SDS011;27809;51.864;5.646;2023-05-10T02:00:01;50.60;;;22.73;;
42140;SDS011;27809;51.864;5.646;2023-05-10T02:02:28;60.15;;;23.08;;
42140;SDS011;27809;51.864;5.646;2023-05-10T02:04:58;47.47;;;21.80;;
42140;SDS011;27809;51.864;5.646;2023-05-10T02:07:24;49.00;;;22.05;;
42140;SDS011;27809;51.864;5.646;2023-05-10T02:09:53;48.97;;;22.02;;
42140;SDS011;27809;51.864;5.646;2023-05-10T02:12:19;42.25;;;19.30;;
42140;SDS011;27809;51.864;5.646;2023-05-10T02:14:47;43.72;;;22.30;;
42140;SDS011;27809;51.864;5.646;2023-05-10T02:17:13;40.88;;;18.48;;
42140;SDS011;27809;51.864;5.646;2023-05-10T02:19:40;41.15;;;20.75;;
42140;SDS011;27809;51.864;5.646;2023-05-10T02:22:06;43.70;;;18.15;;
42140;SDS011;27809;51.864;5.646;2023-05-10T02:24:33;46.45;;;22.60;;
42140;SDS011;27809;51.864;5.646;2023-05-10T02:27:02;52.28;;;21.10;;
42140;SDS011;27809;51.864;5.646;2023-05-10T02:29:28;47.67;;;21.08;;
42140;SDS011;27809;51.864;5.646;2023-05-10T02:31:56;53.03;;;25.13;;
42140;SDS011;27809;51.864;5.646;2023-05-10T02:34:23;50.35;;;22.58;;
42140;SDS011;27809;51.864;5.646;2023-05-10T02:36:51;51.22;;;22.23;;
42140;SDS011;27809;51.864;5.646;2023-05-10T02:39:18;57.40;;;27.63;;
42140;SDS011;27809;51.864;5.646;2023-05-10T02:41:45;47.42;;;23.20;;
42140;SDS011;27809;51.864;5.646;2023-05-10T02:44:14;52.78;;;21.50;;
42140;SDS011;27809;51.864;5.646;2023-05-10T02:46:42;53.35;;;22.50;;
42140;SDS011;27809;51.864;5.646;2023-05-10T02:49:08;59.10;;;25.85;;
42140;SDS011;27809;51.864;5.646;2023-05-10T02:51:35;53.08;;;23.48;;
42140;SDS011;27809;51.864;5.646;2023-05-10T02:54:12;59.17;;;27.90;;
42140;SDS011;27809;51.864;5.646;2023-05-10T02:56:46;53.20;;;24.50;;
42140;SDS011;27809;51.864;5.646;2023-05-10T02:59:15;47.65;;;20.27;;
42140;SDS011;27809;51.864;5.646;2023-05-10T03:01:41;53.20;;;22.08;;
42140;SDS011;27809;51.864;5.646;2023-05-10T03:04:06;55.15;;;24.67;;
42140;SDS011;27809;51.864;5.646;2023-05-10T03:06:32;59.03;;;23.60;;
42140;SDS011;27809;51.864;5.646;2023-05-10T03:08:57;55.72;;;20.73;;
42140;SDS011;27809;51.864;5.646;2023-05-10T03:11:28;47.53;;;20.92;;
42140;SDS011;27809;51.864;5.646;2023-05-10T03:17:06;55.40;;;23.67;;
42140;SDS011;27809;51.864;5.646;2023-05-10T03:22:23;55.45;;;22.63;;
42140;SDS011;27809;51.864;5.646;2023-05-10T03:25:10;54.58;;;22.95;;
42140;SDS011;27809;51.864;5.646;2023-05-10T03:27:36;57.95;;;25.13;;
42140;SDS011;27809;51.864;5.646;2023-05-10T03:30:06;54.83;;;23.13;;
42140;SDS011;27809;51.864;5.646;2023-05-10T03:32:34;58.72;;;26.40;;
42140;SDS011;27809;51.864;5.646;2023-05-10T03:35:00;51.58;;;23.30;;
42140;SDS011;27809;51.864;5.646;2023-05-10T03:37:31;52.58;;;23.08;;
42140;SDS011;27809;51.864;5.646;2023-05-10T03:39:56;53.58;;;24.40;;
42140;SDS011;27809;51.864;5.646;2023-05-10T03:42:22;51.75;;;22.77;;
42140;SDS011;27809;51.864;5.646;2023-05-10T03:44:47;65.25;;;23.98;;
42140;SDS011;27809;51.864;5.646;2023-05-10T03:47:14;58.10;;;23.52;;
42140;SDS011;27809;51.864;5.646;2023-05-10T03:49:39;46.80;;;22.80;;
42140;SDS011;27809;51.864;5.646;2023-05-10T03:52:05;54.55;;;24.52;;
42140;SDS011;27809;51.864;5.646;2023-05-10T03:54:31;48.83;;;22.35;;
42140;SDS011;27809;51.864;5.646;2023-05-10T03:56:57;60.97;;;23.70;;
42140;SDS011;27809;51.864;5.646;2023-05-10T03:59:23;61.75;;;23.50;;
42140;SDS011;27809;51.864;5.646;2023-05-10T04:01:49;63.58;;;24.83;;
42140;SDS011;27809;51.864;5.646;2023-05-10T04:04:14;51.47;;;21.83;;
42140;SDS011;27809;51.864;5.646;2023-05-10T04:06:40;54.20;;;22.65;;
42140;SDS011;27809;51.864;5.646;2023-05-10T04:09:05;55.55;;;23.58;;
42140;SDS011;27809;51.864;5.646;2023-05-10T04:11:31;48.40;;;21.00;;
42140;SDS011;27809;51.864;5.646;2023-05-10T04:13:56;54.53;;;23.55;;
42140;SDS011;27809;51.864;5.646;2023-05-10T04:16:22;54.40;;;22.48;;
42140;SDS011;27809;51.864;5.646;2023-05-10T04:18:47;57.63;;;23.73;;
42140;SDS011;27809;51.864;5.646;2023-05-10T04:21:13;50.28;;;23.38;;
42140;SDS011;27809;51.864;5.646;2023-05-10T04:23:39;51.47;;;22.95;;
42140;SDS011;27809;51.864;5.646;2023-05-10T04:26:05;54.78;;;24.38;;
42140;SDS011;27809;51.864;5.646;2023-05-10T04:28:31;52.63;;;23.38;;
42140;SDS011;27809;51.864;5.646;2023-05-10T04:31:03;52.65;;;21.13;;
42140;SDS011;27809;51.864;5.646;2023-05-10T04:33:29;51.97;;;22.20;;
42140;SDS011;27809;51.864;5.646;2023-05-10T04:35:55;51.78;;;20.98;;
42140;SDS011;27809;51.864;5.646;2023-05-10T04:38:21;57.50;;;25.02;;
42140;SDS011;27809;51.864;5.646;2023-05-10T04:40:46;51.83;;;22.00;;
42140;SDS011;27809;51.864;5.646;2023-05-10T04:43:12;62.65;;;22.58;;
42140;SDS011;27809;51.864;5.646;2023-05-10T04:45:38;46.88;;;21.85;;
42140;SDS011;27809;51.864;5.646;2023-05-10T04:48:03;54.00;;;21.67;;
42140;SDS011;27809;51.864;5.646;2023-05-10T04:50:29;66.40;;;22.10;;
42140;SDS011;27809;51.864;5.646;2023-05-10T04:52:55;54.70;;;22.70;;
42140;SDS011;27809;51.864;5.646;2023-05-10T04:55:20;46.67;;;23.90;;
42140;SDS011;27809;51.864;5.646;2023-05-10T04:57:46;46.78;;;19.58;;
42140;SDS011;27809;51.864;5.646;2023-05-10T05:00:12;62.35;;;22.92;;
42140;SDS011;27809;51.864;5.646;2023-05-10T05:02:37;56.10;;;22.55;;
42140;SDS011;27809;51.864;5.646;2023-05-10T05:05:03;48.50;;;22.90;;
42140;SDS011;27809;51.864;5.646;2023-05-10T05:07:29;46.47;;;20.77;;
42140;SDS011;27809;51.864;5.646;2023-05-10T05:09:55;49.00;;;22.35;;
42140;SDS011;27809;51.864;5.646;2023-05-10T05:12:21;59.47;;;26.20;;
42140;SDS011;27809;51.864;5.646;2023-05-10T05:14:46;48.30;;;21.73;;
42140;SDS011;27809;51.864;5.646;2023-05-10T05:17:12;42.80;;;20.95;;
42140;SDS011;27809;51.864;5.646;2023-05-10T05:19:37;43.78;;;20.95;;
42140;SDS011;27809;51.864;5.646;2023-05-10T05:22:03;50.22;;;22.55;;
42140;SDS011;27809;51.864;5.646;2023-05-10T05:24:34;47.85;;;23.40;;
42140;SDS011;27809;51.864;5.646;2023-05-10T05:27:01;48.47;;;23.50;;
42140;SDS011;27809;51.864;5.646;2023-05-10T05:29:26;51.42;;;23.83;;
42140;SDS011;27809;51.864;5.646;2023-05-10T05:31:52;49.95;;;25.10;;
42140;SDS011;27809;51.864;5.646;2023-05-10T05:34:17;49.92;;;23.92;;
42140;SDS011;27809;51.864;5.646;2023-05-10T05:36:45;62.70;;;26.50;;
42140;SDS011;27809;51.864;5.646;2023-05-10T05:39:10;54.88;;;24.95;;
42140;SDS011;27809;51.864;5.646;2023-05-10T05:41:36;59.72;;;25.27;;
42140;SDS011;27809;51.864;5.646;2023-05-10T05:44:01;57.85;;;24.52;;
42140;SDS011;27809;51.864;5.646;2023-05-10T05:46:27;50.00;;;23.67;;
42140;SDS011;27809;51.864;5.646;2023-05-10T05:48:52;56.25;;;26.05;;
42140;SDS011;27809;51.864;5.646;2023-05-10T05:51:18;50.83;;;22.98;;
42140;SDS011;27809;51.864;5.646;2023-05-10T05:53:43;50.28;;;22.40;;
42140;SDS011;27809;51.864;5.646;2023-05-10T05:56:09;47.58;;;22.38;;
42140;SDS011;27809;51.864;5.646;2023-05-10T05:58:34;52.85;;;23.80;;
42140;SDS011;27809;51.864;5.646;2023-05-10T06:01:00;68.78;;;24.63;;
42140;SDS011;27809;51.864;5.646;2023-05-10T06:03:26;56.20;;;20.70;;
42140;SDS011;27809;51.864;5.646;2023-05-10T06:05:51;55.38;;;22.35;;
42140;SDS011;27809;51.864;5.646;2023-05-10T06:08:17;49.45;;;22.92;;
42140;SDS011;27809;51.864;5.646;2023-05-10T06:10:42;47.55;;;22.52;;
42140;SDS011;27809;51.864;5.646;2023-05-10T06:13:09;49.50;;;23.00;;
42140;SDS011;27809;51.864;5.646;2023-05-10T06:15:34;54.03;;;23.08;;
42140;SDS011;27809;51.864;5.646;2023-05-10T06:18:00;46.22;;;22.48;;
42140;SDS011;27809;51.864;5.646;2023-05-10T06:20:25;47.13;;;22.52;;
42140;SDS011;27809;51.864;5.646;2023-05-10T06:22:51;48.97;;;21.92;;
42140;SDS011;27809;51.864;5.646;2023-05-10T06:25:16;46.95;;;19.95;;
42140;SDS011;27809;51.864;5.646;2023-05-10T06:27:43;51.15;;;20.55;;
42140;SDS011;27809;51.864;5.646;2023-05-10T06:30:09;42.20;;;18.65;;
42140;SDS011;27809;51.864;5.646;2023-05-10T06:32:35;38.38;;;17.65;;
42140;SDS011;27809;51.864;5.646;2023-05-10T06:35:00;40.88;;;17.45;;
42140;SDS011;27809;51.864;5.646;2023-05-10T06:37:26;37.05;;;17.83;;
42140;SDS011;27809;51.864;5.646;2023-05-10T06:39:51;39.53;;;19.30;;
42140;SDS011;27809;51.864;5.646;2023-05-10T06:42:17;52.70;;;20.00;;
42140;SDS011;27809;51.864;5.646;2023-05-10T06:44:42;47.47;;;20.23;;
42140;SDS011;27809;51.864;5.646;2023-05-10T06:47:08;46.78;;;23.15;;
42140;SDS011;27809;51.864;5.646;2023-05-10T06:49:34;57.58;;;20.55;;
42140;SDS011;27809;51.864;5.646;2023-05-10T06:51:59;48.35;;;21.83;;
42140;SDS011;27809;51.864;5.646;2023-05-10T06:54:25;50.67;;;21.38;;
42140;SDS011;27809;51.864;5.646;2023-05-10T06:56:50;54.05;;;23.95;;
42140;SDS011;27809;51.864;5.646;2023-05-10T06:59:16;55.53;;;22.52;;
42140;SDS011;27809;51.864;5.646;2023-05-10T07:01:44;59.97;;;24.17;;
42140;SDS011;27809;51.864;5.646;2023-05-10T07:04:09;49.83;;;21.65;;
42140;SDS011;27809;51.864;5.646;2023-05-10T07:06:35;55.53;;;22.67;;
42140;SDS011;27809;51.864;5.646;2023-05-10T07:09:00;47.47;;;22.80;;
42140;SDS011;27809;51.864;5.646;2023-05-10T07:11:26;63.47;;;26.05;;
42140;SDS011;27809;51.864;5.646;2023-05-10T07:13:52;58.38;;;25.52;;
42140;SDS011;27809;51.864;5.646;2023-05-10T07:16:17;52.75;;;20.75;;
42140;SDS011;27809;51.864;5.646;2023-05-10T07:18:43;52.42;;;24.52;;
42140;SDS011;27809;51.864;5.646;2023-05-10T07:21:08;66.40;;;25.77;;
42140;SDS011;27809;51.864;5.646;2023-05-10T07:23:34;68.53;;;25.98;;
42140;SDS011;27809;51.864;5.646;2023-05-10T07:26:00;58.33;;;25.15;;
42140;SDS011;27809;51.864;5.646;2023-05-10T07:28:27;50.08;;;22.95;;
42140;SDS011;27809;51.864;5.646;2023-05-10T07:30:52;47.65;;;22.52;;
42140;SDS011;27809;51.864;5.646;2023-05-10T07:33:18;58.13;;;24.27;;
42140;SDS011;27809;51.864;5.646;2023-05-10T07:35:43;51.72;;;23.08;;
42140;SDS011;27809;51.864;5.646;2023-05-10T07:38:09;54.92;;;24.50;;
42140;SDS011;27809;51.864;5.646;2023-05-10T07:40:36;49.85;;;24.88;;
42140;SDS011;27809;51.864;5.646;2023-05-10T07:43:02;58.50;;;24.85;;
42140;SDS011;27809;51.864;5.646;2023-05-10T07:45:27;60.45;;;26.77;;
42140;SDS011;27809;51.864;5.646;2023-05-10T07:47:53;58.40;;;26.17;;
42140;SDS011;27809;51.864;5.646;2023-05-10T07:50:19;54.50;;;23.63;;
42140;SDS011;27809;51.864;5.646;2023-05-10T07:52:46;52.17;;;25.40;;
42140;SDS011;27809;51.864;5.646;2023-05-10T07:55:11;52.33;;;24.30;;
42140;SDS011;27809;51.864;5.646;2023-05-10T07:57:37;58.88;;;27.80;;
42140;SDS011;27809;51.864;5.646;2023-05-10T08:00:03;72.72;;;27.83;;
42140;SDS011;27809;51.864;5.646;2023-05-10T08:02:29;71.50;;;29.85;;
42140;SDS011;27809;51.864;5.646;2023-05-10T08:04:55;55.03;;;25.88;;
42140;SDS011;27809;51.864;5.646;2023-05-10T08:07:20;63.53;;;27.13;;
42140;SDS011;27809;51.864;5.646;2023-05-10T08:09:46;61.97;;;28.42;;
42140;SDS011;27809;51.864;5.646;2023-05-10T08:12:12;66.70;;;25.25;;
42140;SDS011;27809;51.864;5.646;2023-05-10T08:14:37;52.53;;;24.50;;
42140;SDS011;27809;51.864;5.646;2023-05-10T08:17:03;59.30;;;23.75;;
42140;SDS011;27809;51.864;5.646;2023-05-10T08:19:29;58.20;;;24.58;;
42140;SDS011;27809;51.864;5.646;2023-05-10T08:21:54;56.33;;;24.10;;
42140;SDS011;27809;51.864;5.646;2023-05-10T08:24:23;50.60;;;22.98;;
42140;SDS011;27809;51.864;5.646;2023-05-10T08:26:48;50.80;;;22.65;;
42140;SDS011;27809;51.864;5.646;2023-05-10T08:29:14;34.28;;;17.00;;
42140;SDS011;27809;51.864;5.646;2023-05-10T08:31:40;41.40;;;19.85;;
42140;SDS011;27809;51.864;5.646;2023-05-10T08:34:05;29.73;;;16.20;;
42140;SDS011;27809;51.864;5.646;2023-05-10T08:36:31;33.58;;;16.58;;
42140;SDS011;27809;51.864;5.646;2023-05-10T08:38:57;37.92;;;18.63;;
42140;SDS011;27809;51.864;5.646;2023-05-10T08:41:23;34.58;;;17.55;;
42140;SDS011;27809;51.864;5.646;2023-05-10T08:43:50;25.23;;;12.88;;
42140;SDS011;27809;51.864;5.646;2023-05-10T08:46:20;23.48;;;12.93;;
42140;SDS011;27809;51.864;5.646;2023-05-10T08:48:48;20.58;;;11.25;;
42140;SDS011;27809;51.864;5.646;2023-05-10T08:51:16;23.55;;;11.27;;
42140;SDS011;27809;51.864;5.646;2023-05-10T08:53:44;19.67;;;11.10;;
42140;SDS011;27809;51.864;5.646;2023-05-10T08:56:11;18.40;;;9.90;;
42140;SDS011;27809;51.864;5.646;2023-05-10T08:58:37;20.40;;;10.02;;
42140;SDS011;27809;51.864;5.646;2023-05-10T09:01:03;20.98;;;8.93;;
42140;SDS011;27809;51.864;5.646;2023-05-10T09:03:30;17.10;;;7.97;;
42140;SDS011;27809;51.864;5.646;2023-05-10T09:05:56;11.40;;;6.80;;
42140;SDS011;27809;51.864;5.646;2023-05-10T09:08:22;10.63;;;6.03;;
42140;SDS011;27809;51.864;5.646;2023-05-10T09:10:52;12.75;;;5.40;;
42140;SDS011;27809;51.864;5.646;2023-05-10T09:13:19;11.45;;;5.47;;
42140;SDS011;27809;51.864;5.646;2023-05-10T09:15:46;12.23;;;6.57;;
42140;SDS011;27809;51.864;5.646;2023-05-10T09:18:13;12.52;;;4.90;;
42140;SDS011;27809;51.864;5.646;2023-05-10T09:20:38;10.43;;;5.43;;
42140;SDS011;27809;51.864;5.646;2023-05-10T09:23:05;8.18;;;4.75;;
42140;SDS011;27809;51.864;5.646;2023-05-10T09:25:30;8.57;;;5.03;;
42140;SDS011;27809;51.864;5.646;2023-05-10T09:27:58;6.10;;;3.70;;
42140;SDS011;27809;51.864;5.646;2023-05-10T09:30:28;5.65;;;3.53;;
42140;SDS011;27809;51.864;5.646;2023-05-10T09:32:55;8.27;;;3.80;;
42140;SDS011;27809;51.864;5.646;2023-05-10T09:35:23;8.73;;;4.15;;
42140;SDS011;27809;51.864;5.646;2023-05-10T09:37:50;8.35;;;3.78;;
42140;SDS011;27809;51.864;5.646;2023-05-10T09:40:19;10.27;;;5.35;;
42140;SDS011;27809;51.864;5.646;2023-05-10T09:42:53;9.05;;;4.75;;
42140;SDS011;27809;51.864;5.646;2023-05-10T09:45:20;8.10;;;3.83;;
42140;SDS011;27809;51.864;5.646;2023-05-10T09:47:47;7.45;;;3.95;;
42140;SDS011;27809;51.864;5.646;2023-05-10T09:50:13;10.98;;;3.72;;
42140;SDS011;27809;51.864;5.646;2023-05-10T09:55:18;7.07;;;2.50;;
42140;SDS011;27809;51.864;5.646;2023-05-10T09:57:48;10.30;;;5.07;;
42140;SDS011;27809;51.864;5.646;2023-05-10T10:00:18;7.85;;;4.93;;
42140;SDS011;27809;51.864;5.646;2023-05-10T10:02:45;9.35;;;4.75;;
42140;SDS011;27809;51.864;5.646;2023-05-10T10:05:20;2.53;;;1.55;;
42140;SDS011;27809;51.864;5.646;2023-05-10T10:07:52;4.70;;;1.63;;
42140;SDS011;27809;51.864;5.646;2023-05-10T10:10:18;3.80;;;1.00;;
42140;SDS011;27809;51.864;5.646;2023-05-10T10:12:43;1.75;;;1.25;;
42140;SDS011;27809;51.864;5.646;2023-05-10T10:15:09;8.02;;;3.67;;
42140;SDS011;27809;51.864;5.646;2023-05-10T10:17:36;5.55;;;3.42;;
42140;SDS011;27809;51.864;5.646;2023-05-10T10:20:03;7.95;;;3.03;;
42140;SDS011;27809;51.864;5.646;2023-05-10T10:22:29;7.05;;;3.03;;
42140;SDS011;27809;51.864;5.646;2023-05-10T10:24:54;9.32;;;4.82;;
42140;SDS011;27809;51.864;5.646;2023-05-10T10:35:29;7.65;;;3.75;;
42140;SDS011;27809;51.864;5.646;2023-05-10T10:37:55;6.80;;;3.33;;
42140;SDS011;27809;51.864;5.646;2023-05-10T10:40:28;8.10;;;4.40;;
42140;SDS011;27809;51.864;5.646;2023-05-10T10:42:55;7.50;;;4.25;;
42140;SDS011;27809;51.864;5.646;2023-05-10T10:45:22;7.78;;;3.92;;
42140;SDS011;27809;51.864;5.646;2023-05-10T10:50:46;7.70;;;3.20;;
42140;SDS011;27809;51.864;5.646;2023-05-10T10:53:11;9.25;;;4.30;;
42140;SDS011;27809;51.864;5.646;2023-05-10T10:55:45;8.70;;;4.88;;
42140;SDS011;27809;51.864;5.646;2023-05-10T10:58:13;5.00;;;3.50;;
42140;SDS011;27809;51.864;5.646;2023-05-10T11:01:08;10.13;;;1.63;;
42140;SDS011;27809;51.864;5.646;2023-05-10T11:03:54;5.53;;;1.40;;
42140;SDS011;27809;51.864;5.646;2023-05-10T11:06:30;5.60;;;2.58;;
42140;SDS011;27809;51.864;5.646;2023-05-10T11:08:59;3.33;;;1.83;;
42140;SDS011;27809;51.864;5.646;2023-05-10T11:11:36;4.80;;;2.72;;
42140;SDS011;27809;51.864;5.646;2023-05-10T11:14:14;4.43;;;2.78;;
42140;SDS011;27809;51.864;5.646;2023-05-10T11:16:42;4.95;;;2.72;;
42140;SDS011;27809;51.864;5.646;2023-05-10T11:19:13;5.35;;;2.75;;
42140;SDS011;27809;51.864;5.646;2023-05-10T11:21:50;3.88;;;2.45;;
42140;SDS011;27809;51.864;5.646;2023-05-10T11:24:35;3.42;;;2.28;;
42140;SDS011;27809;51.864;5.646;2023-05-10T11:27:01;5.30;;;1.83;;
42140;SDS011;27809;51.864;5.646;2023-05-10T11:29:27;3.45;;;2.40;;
42140;SDS011;27809;51.864;5.646;2023-05-10T11:31:53;5.43;;;2.95;;
42140;SDS011;27809;51.864;5.646;2023-05-10T11:34:23;3.53;;;2.35;;
42140;SDS011;27809;51.864;5.646;2023-05-10T11:36:53;2.72;;;1.90;;
42140;SDS011;27809;51.864;5.646;2023-05-10T11:39:20;5.03;;;1.77;;
42140;SDS011;27809;51.864;5.646;2023-05-10T11:41:49;4.07;;;2.13;;
42140;SDS011;27809;51.864;5.646;2023-05-10T11:44:15;6.82;;;1.83;;
42140;SDS011;27809;51.864;5.646;2023-05-10T11:46:41;3.55;;;2.13;;
42140;SDS011;27809;51.864;5.646;2023-05-10T11:49:06;3.28;;;1.65;;
42140;SDS011;27809;51.864;5.646;2023-05-10T11:51:33;4.70;;;2.10;;
42140;SDS011;27809;51.864;5.646;2023-05-10T11:54:01;4.15;;;2.38;;
42140;SDS011;27809;51.864;5.646;2023-05-10T11:56:32;3.53;;;1.60;;
42140;SDS011;27809;51.864;5.646;2023-05-10T11:58:58;6.47;;;2.95;;
42140;SDS011;27809;51.864;5.646;2023-05-10T12:01:25;4.93;;;2.72;;
42140;SDS011;27809;51.864;5.646;2023-05-10T12:03:52;3.38;;;2.40;;
42140;SDS011;27809;51.864;5.646;2023-05-10T12:06:19;5.93;;;2.13;;
42140;SDS011;27809;51.864;5.646;2023-05-10T12:08:46;8.02;;;3.10;;
42140;SDS011;27809;51.864;5.646;2023-05-10T12:11:13;3.50;;;1.23;;
42140;SDS011;27809;51.864;5.646;2023-05-10T12:13:40;7.15;;;2.85;;
42140;SDS011;27809;51.864;5.646;2023-05-10T12:16:21;5.20;;;3.28;;
42140;SDS011;27809;51.864;5.646;2023-05-10T12:18:48;4.80;;;2.15;;
42140;SDS011;27809;51.864;5.646;2023-05-10T12:21:16;4.18;;;1.88;;
42140;SDS011;27809;51.864;5.646;2023-05-10T12:23:43;6.68;;;3.75;;
42140;SDS011;27809;51.864;5.646;2023-05-10T12:26:11;7.95;;;3.90;;
42140;SDS011;27809;51.864;5.646;2023-05-10T12:28:36;7.82;;;3.40;;
42140;SDS011;27809;51.864;5.646;2023-05-10T12:31:04;8.35;;;4.57;;
42140;SDS011;27809;51.864;5.646;2023-05-10T12:36:04;5.60;;;4.10;;
42140;SDS011;27809;51.864;5.646;2023-05-10T12:41:02;8.07;;;4.45;;
42140;SDS011;27809;51.864;5.646;2023-05-10T12:43:28;7.78;;;4.53;;
42140;SDS011;27809;51.864;5.646;2023-05-10T12:45:54;6.20;;;4.25;;
42140;SDS011;27809;51.864;5.646;2023-05-10T12:48:20;8.27;;;5.22;;
42140;SDS011;27809;51.864;5.646;2023-05-10T12:50:46;7.38;;;3.72;;
42140;SDS011;27809;51.864;5.646;2023-05-10T12:53:13;8.20;;;3.33;;
42140;SDS011;27809;51.864;5.646;2023-05-10T12:55:40;6.32;;;4.45;;
42140;SDS011;27809;51.864;5.646;2023-05-10T12:58:09;7.05;;;4.38;;
42140;SDS011;27809;51.864;5.646;2023-05-10T13:00:34;7.07;;;4.72;;
42140;SDS011;27809;51.864;5.646;2023-05-10T13:03:02;7.38;;;4.03;;
42140;SDS011;27809;51.864;5.646;2023-05-10T13:05:34;5.80;;;3.38;;
42140;SDS011;27809;51.864;5.646;2023-05-10T13:08:00;5.15;;;4.60;;
42140;SDS011;27809;51.864;5.646;2023-05-10T13:10:25;8.25;;;4.47;;
42140;SDS011;27809;51.864;5.646;2023-05-10T13:12:51;6.70;;;3.85;;
42140;SDS011;27809;51.864;5.646;2023-05-10T13:15:16;6.68;;;4.57;;
42140;SDS011;27809;51.864;5.646;2023-05-10T13:17:42;7.32;;;4.53;;
42140;SDS011;27809;51.864;5.646;2023-05-10T13:20:08;8.68;;;6.50;;
42140;SDS011;27809;51.864;5.646;2023-05-10T13:22:34;7.85;;;5.50;;
42140;SDS011;27809;51.864;5.646;2023-05-10T13:25:00;10.90;;;6.57;;
42140;SDS011;27809;51.864;5.646;2023-05-10T13:27:26;9.75;;;6.13;;
42140;SDS011;27809;51.864;5.646;2023-05-10T13:29:52;6.75;;;5.25;;
42140;SDS011;27809;51.864;5.646;2023-05-10T13:32:18;6.75;;;5.15;;
42140;SDS011;27809;51.864;5.646;2023-05-10T13:34:44;12.93;;;4.60;;
42140;SDS011;27809;51.864;5.646;2023-05-10T13:37:09;6.10;;;4.15;;
42140;SDS011;27809;51.864;5.646;2023-05-10T13:39:35;6.57;;;4.90;;
42140;SDS011;27809;51.864;5.646;2023-05-10T13:42:02;7.70;;;5.20;;
42140;SDS011;27809;51.864;5.646;2023-05-10T13:44:28;9.65;;;4.78;;
42140;SDS011;27809;51.864;5.646;2023-05-10T13:46:53;4.65;;;4.10;;
42140;SDS011;27809;51.864;5.646;2023-05-10T13:49:20;6.25;;;5.25;;
42140;SDS011;27809;51.864;5.646;2023-05-10T13:51:46;6.15;;;4.68;;
42140;SDS011;27809;51.864;5.646;2023-05-10T13:54:12;7.88;;;5.03;;
42140;SDS011;27809;51.864;5.646;2023-05-10T13:56:38;7.90;;;5.40;;
42140;SDS011;27809;51.864;5.646;2023-05-10T13:59:03;6.45;;;5.10;;
42140;SDS011;27809;51.864;5.646;2023-05-10T14:01:29;6.38;;;4.45;;
42140;SDS011;27809;51.864;5.646;2023-05-10T14:03:54;6.95;;;4.50;;
42140;SDS011;27809;51.864;5.646;2023-05-10T14:06:20;8.63;;;4.10;;
42140;SDS011;27809;51.864;5.646;2023-05-10T14:08:46;7.97;;;5.15;;
42140;SDS011;27809;51.864;5.646;2023-05-10T14:11:12;5.00;;;3.95;;
42140;SDS011;27809;51.864;5.646;2023-05-10T14:13:37;3.97;;;3.40;;
42140;SDS011;27809;51.864;5.646;2023-05-10T14:16:03;5.40;;;3.95;;
42140;SDS011;27809;51.864;5.646;2023-05-10T14:18:29;4.63;;;3.40;;
42140;SDS011;27809;51.864;5.646;2023-05-10T14:20:54;4.30;;;3.33;;
42140;SDS011;27809;51.864;5.646;2023-05-10T14:23:21;6.90;;;4.55;;
42140;SDS011;27809;51.864;5.646;2023-05-10T14:25:49;4.65;;;3.75;;
42140;SDS011;27809;51.864;5.646;2023-05-10T14:28:15;6.38;;;4.22;;
42140;SDS011;27809;51.864;5.646;2023-05-10T14:30:42;4.60;;;3.55;;
42140;SDS011;27809;51.864;5.646;2023-05-10T14:33:08;7.70;;;4.00;;
42140;SDS011;27809;51.864;5.646;2023-05-10T14:35:33;10.63;;;3.80;;
42140;SDS011;27809;51.864;5.646;2023-05-10T14:37:59;5.75;;;4.20;;
42140;SDS011;27809;51.864;5.646;2023-05-10T14:40:24;6.55;;;3.65;;
42140;SDS011;27809;51.864;5.646;2023-05-10T14:42:50;5.22;;;3.97;;
42140;SDS011;27809;51.864;5.646;2023-05-10T14:45:17;6.13;;;3.78;;
42140;SDS011;27809;51.864;5.646;2023-05-10T14:47:43;8.50;;;5.28;;
42140;SDS011;27809;51.864;5.646;2023-05-10T14:50:09;5.95;;;5.22;;
42140;SDS011;27809;51.864;5.646;2023-05-10T14:52:34;8.25;;;5.82;;
42140;SDS011;27809;51.864;5.646;2023-05-10T14:55:00;7.47;;;5.78;;
42140;SDS011;27809;51.864;5.646;2023-05-10T14:57:26;7.13;;;3.85;;
42140;SDS011;27809;51.864;5.646;2023-05-10T14:59:54;6.93;;;4.68;;
42140;SDS011;27809;51.864;5.646;2023-05-10T15:02:21;10.38;;;3.88;;
42140;SDS011;27809;51.864;5.646;2023-05-10T15:04:46;8.32;;;4.88;;
42140;SDS011;27809;51.864;5.646;2023-05-10T15:07:12;7.53;;;4.13;;
42140;SDS011;27809;51.864;5.646;2023-05-10T15:09:39;6.32;;;3.90;;
42140;SDS011;27809;51.864;5.646;2023-05-10T15:12:05;5.45;;;3.78;;